Time;durP1;ratioP1;P1;durP2;ratioP2;P2;SDS_P1;SDS_P2;PMS_P1;PMS_P2;Temp;Humidity;BMP_temperature;BMP_pressure;BME280_temperature;BME280_humidity;BME280_pressure;Samples;Min_cycle;Max_cycle;Signal;HPM_P1;HPM_P2
2022/12/10 00:02:23;;;;;;;;;;;;;;;-144.99;100.00;52666.19;5009831;28;19993;-75
2022/12/10 00:04:49;;;;;;;;;;;;;;;-144.99;100.00;52635.63;5006775;28;20079;-76
2022/12/10 00:07:16;;;;;;;;;;;;;;;-144.99;100.00;52704.94;5003222;28;20007;-75
2022/12/10 00:09:43;;;;;;;;;;;;;;;-144.99;100.00;52680.47;5012905;28;19949;-78
2022/12/10 00:12:09;;;;;;;;;;;;;;;-144.99;100.00;52676.38;5027900;28;19971;-78
2022/12/10 00:14:35;;;;;;;;;;;;;;;-144.99;100.00;52660.09;5022216;28;19948;-76
2022/12/10 00:17:02;;;;;;;;;;;;;;;-144.99;100.00;52658.03;5006130;28;20606;-76
2022/12/10 00:19:30;;;;;;;;;;;;;;;-144.99;100.00;52713.09;5004685;28;19990;-76
2022/12/10 00:21:56;;;;;;;;;;;;;;;-144.99;100.00;52692.69;5007922;28;20288;-75
2022/12/10 00:24:23;;;;;;;;;;;;;;;-144.99;100.00;52680.47;5009573;28;20375;-76
2022/12/10 00:26:50;;;;;;;;;;;;;;;-144.99;100.00;52704.94;5010358;28;19932;-76
2022/12/10 00:29:16;;;;;;;;;;;;;;;-144.99;100.00;52653.97;5011506;28;19998;-76
2022/12/10 00:31:43;;;;;;;;;;;;;;;-144.99;100.00;52670.28;5011551;28;19983;-76
2022/12/10 00:34:10;;;;;;;;;;;;;;;-144.99;100.00;52684.53;5007950;28;20035;-75
2022/12/10 00:36:40;;;;;;;;;;;;;;;-144.99;100.00;52635.63;4998411;28;20043;-76
2022/12/10 00:39:06;;;;;;;;;;;;;;;-144.99;100.00;52688.63;5010623;28;19964;-75
2022/12/10 00:41:33;;;;;;;;;;;;;;;-144.99;100.00;52676.38;5014867;28;19999;-77
2022/12/10 00:43:59;;;;;;;;;;;;;;;-144.99;100.00;52664.16;5014483;28;19990;-76
2022/12/10 00:46:26;;;;;;;;;;;;;;;-144.99;100.00;52676.38;5003640;28;19956;-75
2022/12/10 00:48:53;;;;;;;;;;;;;;;-144.99;100.00;52651.94;5012053;28;19944;-76
2022/12/10 00:51:20;;;;;;;;;;;;;;;-144.99;100.00;52647.84;5006953;28;20016;-75
2022/12/10 00:53:49;;;;;;;;;;;;;;;-144.99;100.00;52664.16;5012003;28;19925;-75
2022/12/10 00:56:17;;;;;;;;;;;;;;;-144.99;100.00;52668.22;5009441;28;20343;-76
2022/12/10 00:58:44;;;;;;;;;;;;;;;-144.99;100.00;52647.84;5006621;28;19947;-77
2022/12/10 01:01:12;;;;;;;;;;;;;;;-144.99;100.00;52660.09;5009177;28;19960;-77
2022/12/10 01:03:38;;;;;;;;;;;;;;;-144.99;100.00;52668.22;5003022;28;19940;-77
2022/12/10 01:06:09;;;;;;;;;;;;;;;-144.99;100.00;52651.94;5003211;28;19990;-78
2022/12/10 01:08:35;;;;;;;;;;;;;;;-144.99;100.00;52656.00;5003069;28;19983;-76
2022/12/10 01:11:03;;;;;;;;;;;;;;;-144.99;100.00;52704.94;5010768;28;19979;-77
2022/12/10 01:13:29;;;;;;;;;;;;;;;-144.99;100.00;52651.94;4998939;28;20449;-77
2022/12/10 01:15:56;;;;;;;;;;;;;;;-144.99;100.00;52684.53;5010459;28;20002;-77
2022/12/10 01:18:22;;;;;;;;;;;;;;;-144.99;100.00;52676.38;5011160;28;20007;-77
2022/12/10 01:20:49;;;;;;;;;;;;;;;-144.99;100.00;52684.53;4664760;28;10000227;-76
2022/12/10 01:23:15;;;;;;;;;;;;;;;-144.99;100.00;52696.78;5010538;28;19984;-76
2022/12/10 01:25:42;;;;;;;;;;;;;;;-144.99;100.00;52680.47;5011010;28;19995;-76
2022/12/10 01:28:10;;;;;;;;;;;;;;;-144.99;100.00;52664.16;5010928;28;19949;-76
2022/12/10 01:30:36;;;;;;;;;;;;;;;-144.99;100.00;52700.84;5012217;28;20412;-76
2022/12/10 01:33:02;;;;;;;;;;;;;;;-144.99;100.00;52711.03;5010040;28;19975;-77
2022/12/10 01:35:29;;;;;;;;;;;;;;;-144.99;100.00;52696.78;5013256;28;20387;-76
2022/12/10 01:37:55;;;;;;;;;;;;;;;-144.99;100.00;52676.38;5030619;23;19993;-72
2022/12/10 01:40:22;;;;;;;;;;;;;;;-144.99;100.00;52713.09;4989484;28;20012;-71
2022/12/10 01:42:48;;;;;;;;;;;;;;;-144.99;100.00;52647.84;5006924;28;20058;-72
2022/12/10 01:45:16;;;;;;;;;;;;;;;-144.99;100.00;52676.38;5010844;28;20028;-71
2022/12/10 01:47:43;;;;;;;;;;;;;;;-144.99;100.00;52702.88;5005212;28;19973;-71
2022/12/10 01:50:10;;;;;;;;;;;;;;;-144.99;100.00;52676.38;4990945;28;20006;-71
2022/12/10 01:52:37;;;;;;;;;;;;;;;-144.99;100.00;52668.22;4990652;28;19956;-74
2022/12/10 01:55:07;;;;;;;;;;;;;;;-144.99;100.00;52672.31;4991557;28;19972;-73
2022/12/10 01:57:34;;;;;;;;;;;;;;;-144.99;100.00;52696.78;4991578;28;20397;-75
2022/12/10 02:00:01;;;;;;;;;;;;;;;-144.99;100.00;52668.22;4991634;28;19947;-75
2022/12/10 02:02:40;;;;;;;;;;;;;;;-144.99;100.00;52668.22;4991509;28;20066;-75
2022/12/10 02:05:13;;;;;;;;;;;;;;;-144.99;100.00;52709.00;4999045;28;19925;-76
2022/12/10 02:07:46;;;;;;;;;;;;;;;-144.99;100.00;52664.16;5012812;28;20011;-78
2022/12/10 02:10:18;;;;;;;;;;;;;;;-144.99;99.63;52684.53;4993904;28;19957;-75
2022/12/10 02:12:48;;;;;;;;;;;;;;;-144.99;98.80;52688.63;4997320;28;19956;-76
2022/12/10 02:15:16;;;;;;;;;;;;;;;-144.99;98.46;52700.84;4994332;28;20414;-77
2022/12/10 02:17:45;;;;;;;;;;;;;;;-144.99;98.11;52643.78;4995125;28;20434;-76
2022/12/10 02:20:14;;;;;;;;;;;;;;;-144.99;98.00;52694.72;5000900;28;20324;-76
2022/12/10 02:22:43;;;;;;;;;;;;;;;-144.99;97.79;52704.94;5003811;28;19925;-76
2022/12/10 02:25:12;;;;;;;;;;;;;;;-144.99;97.70;52696.78;5007389;28;19987;-78
2022/12/10 02:27:43;;;;;;;;;;;;;;;-144.99;97.87;52688.63;5021249;28;19973;-80
2022/12/10 02:30:11;;;;;;;;;;;;;;;-144.99;97.71;52668.22;5010802;28;19930;-76
2022/12/10 02:32:40;;;;;;;;;;;;;;;-144.99;97.69;52680.47;5010048;28;20155;-74
2022/12/10 02:35:08;;;;;;;;;;;;;;;-144.99;97.77;52688.63;5004806;28;19954;-78
2022/12/10 02:37:38;;;;;;;;;;;;;;;-144.99;97.72;52649.88;5002577;28;19956;-76
2022/12/10 02:40:07;;;;;;;;;;;;;;;-144.99;97.82;52668.22;5006472;28;19970;-75
2022/12/10 02:42:36;;;;;;;;;;;;;;;-144.99;97.90;52639.69;5016587;28;20023;-74
2022/12/10 02:45:06;;;;;;;;;;;;;;;-144.99;97.95;52668.22;5021307;28;22445;-78
2022/12/10 02:47:34;;;;;;;;;;;;;;;-144.99;97.92;52700.84;5007679;28;19960;-79
2022/12/10 02:50:01;;;;;;;;;;;;;;;-144.99;98.30;52678.44;5027344;28;19941;-79
2022/12/10 02:52:28;;;;;;;;;;;;;;;-144.99;98.25;52674.34;5014144;28;19925;-81
2022/12/10 02:54:54;;;;;;;;;;;;;;;-144.99;98.54;52688.63;5019375;28;19966;-75
2022/12/10 02:57:28;;;;;;;;;;;;;;;-144.99;98.53;52713.09;4999054;28;19960;-78
2022/12/10 03:00:01;;;;;;;;;;;;;;;-144.99;98.68;52639.69;5011831;28;19985;-78
2022/12/10 03:02:32;;;;;;;;;;;;;;;-144.99;97.46;52668.22;4991716;28;20006;-76
2022/12/10 03:05:03;;;;;;;;;;;;;;;-144.99;97.10;52643.78;5010686;28;19990;-75
2022/12/10 03:07:34;;;;;;;;;;;;;;;-144.99;97.08;52668.22;5002947;28;20008;-81
2022/12/10 03:10:03;;;;;;;;;;;;;;;-144.99;97.09;52680.47;5015965;28;19926;-76
2022/12/10 03:12:32;;;;;;;;;;;;;;;-144.99;96.98;52635.63;4986478;28;20011;-76
2022/12/10 03:15:00;;;;;;;;;;;;;;;-144.99;96.44;52684.53;4999248;28;19986;-76
2022/12/10 03:17:28;;;;;;;;;;;;;;;-144.99;96.33;52651.94;4997233;28;20000;-76
2022/12/10 03:19:56;;;;;;;;;;;;;;;-144.99;96.60;52676.38;5006011;28;20142;-75
2022/12/10 03:22:24;;;;;;;;;;;;;;;-144.99;95.40;52668.22;5004096;28;20387;-76
2022/12/10 03:24:51;;;;;;;;;;;;;;;-144.99;95.95;52656.00;5013703;28;19939;-77
2022/12/10 03:27:19;;;;;;;;;;;;;;;-144.99;95.92;52680.47;5011913;28;20030;-74
2022/12/10 03:29:48;;;;;;;;;;;;;;;-144.99;95.92;52645.81;5006841;28;19967;-76
2022/12/10 03:32:15;;;;;;;;;;;;;;;-144.99;95.62;52706.97;5019125;28;19931;-78
2022/12/10 03:34:43;;;;;;;;;;;;;;;-144.99;95.38;52694.72;5020237;28;19942;-78
2022/12/10 03:37:10;;;;;;;;;;;;;;;-144.99;95.51;52694.72;5022196;28;19914;-79
2022/12/10 03:39:38;;;;;;;;;;;;;;;-144.99;95.42;52664.16;5013797;28;19957;-78
2022/12/10 03:42:05;;;;;;;;;;;;;;;-144.99;95.39;52664.16;5026957;28;19976;-76
2022/12/10 03:44:32;;;;;;;;;;;;;;;-144.99;95.56;52696.78;5018608;28;20026;-77
2022/12/10 03:46:58;;;;;;;;;;;;;;;-144.99;95.58;52643.78;5027320;28;19930;-77
2022/12/10 03:49:25;;;;;;;;;;;;;;;-144.99;95.58;52621.34;5023028;28;20101;-76
2022/12/10 03:51:52;;;;;;;;;;;;;;;-144.99;95.37;52664.16;5019782;28;19928;-77
2022/12/10 03:54:18;;;;;;;;;;;;;;;-144.99;95.11;52704.94;5025199;28;19925;-77
2022/12/10 03:56:46;;;;;;;;;;;;;;;-144.99;94.85;52639.69;5020929;28;19944;-76
2022/12/10 03:59:13;;;;;;;;;;;;;;;-144.99;94.91;52704.94;5025285;28;19944;-77
2022/12/10 04:01:39;;;;;;;;;;;;;;;-144.99;95.08;52656.00;5018712;28;19938;-79
2022/12/10 04:04:06;;;;;;;;;;;;;;;-144.99;95.26;52668.22;5020666;28;19914;-79
2022/12/10 04:06:32;;;;;;;;;;;;;;;-144.99;95.16;52692.69;5034719;28;19928;-79
2022/12/10 04:08:59;;;;;;;;;;;;;;;-144.99;95.28;52674.34;5024646;28;19948;-78
2022/12/10 04:11:25;;;;;;;;;;;;;;;-144.99;95.39;52676.38;5025646;28;19924;-79
2022/12/10 04:16:38;;;;;;;;;;;;;;;-144.99;95.11;52651.94;5016906;28;19931;-80
2022/12/10 04:19:06;;;;;;;;;;;;;;;-144.99;94.88;52672.31;5034170;28;19929;-79
2022/12/10 04:27:05;;;;;;;;;;;;;;;-144.99;94.09;52668.22;5031332;28;19999;-80
2022/12/10 04:29:33;;;;;;;;;;;;;;;-144.99;94.15;52662.13;5026557;28;19983;-80
2022/12/10 04:31:59;;;;;;;;;;;;;;;-144.99;94.29;52651.94;5025164;28;20006;-79
2022/12/10 04:34:26;;;;;;;;;;;;;;;-144.99;94.06;52664.16;5020188;28;19925;-81
2022/12/10 04:36:52;;;;;;;;;;;;;;;-144.99;94.11;52651.94;5022387;28;19940;-81
2022/12/10 04:39:19;;;;;;;;;;;;;;;-144.99;94.06;52660.09;5016882;28;19948;-81
2022/12/10 04:41:47;;;;;;;;;;;;;;;-144.99;93.82;52672.31;5028534;28;19924;-81
2022/12/10 04:44:13;;;;;;;;;;;;;;;-144.99;93.22;52713.09;5027036;28;19948;-81
2022/12/10 04:46:41;;;;;;;;;;;;;;;-144.99;92.79;52619.31;5028475;28;19924;-81
2022/12/10 04:49:08;;;;;;;;;;;;;;;-144.99;91.73;52656.00;5024903;28;19929;-79
2022/12/10 04:51:34;;;;;;;;;;;;;;;-144.99;91.01;52678.44;5029101;28;19925;-78
2022/12/10 04:54:01;;;;;;;;;;;;;;;-144.99;89.90;52694.72;5026824;28;19930;-80
2022/12/10 04:56:27;;;;;;;;;;;;;;;-144.99;89.60;52668.22;5013364;28;19933;-81
2022/12/10 04:58:55;;;;;;;;;;;;;;;-144.99;89.63;52651.94;5027364;28;19925;-80
2022/12/10 05:01:22;;;;;;;;;;;;;;;-144.99;89.22;52682.50;5020801;28;20028;-79
2022/12/10 05:03:50;;;;;;;;;;;;;;;-144.99;88.76;52649.88;5023002;28;19925;-78
2022/12/10 05:06:17;;;;;;;;;;;;;;;-144.99;88.42;52684.53;5009078;28;20044;-76
2022/12/10 05:08:44;;;;;;;;;;;;;;;-144.99;88.54;52651.94;5008161;28;19955;-72
2022/12/10 05:11:11;;;;;;;;;;;;;;;-144.99;89.07;52670.28;5008719;28;19951;-78
2022/12/10 05:13:37;;;;;;;;;;;;;;;-144.99;89.67;52668.22;5023451;28;19933;-76
2022/12/10 05:16:05;;;;;;;;;;;;;;;-144.99;89.67;52700.84;5013995;28;20423;-75
2022/12/10 05:18:31;;;;;;;;;;;;;;;-144.99;89.84;52656.00;4996853;28;19989;-75
2022/12/10 05:21:00;;;;;;;;;;;;;;;-144.99;90.10;52692.69;4992938;28;19945;-75
2022/12/10 05:23:28;;;;;;;;;;;;;;;-144.99;89.77;52682.50;5014021;28;19975;-75
2022/12/10 05:26:01;;;;;;;;;;;;;;;-144.99;89.56;52666.19;5012042;28;19925;-76
2022/12/10 05:28:28;;;;;;;;;;;;;;;-144.99;89.63;52680.47;4991635;28;20003;-75
2022/12/10 05:30:54;;;;;;;;;;;;;;;-144.99;89.53;52682.50;4994371;28;19976;-76
2022/12/10 05:33:21;;;;;;;;;;;;;;;-144.99;89.62;52664.16;4996673;28;20033;-75
2022/12/10 05:35:52;;;;;;;;;;;;;;;-144.99;89.73;52709.00;5002895;28;19985;-76
2022/12/10 05:38:20;;;;;;;;;;;;;;;-144.99;89.00;52700.84;4996687;28;20039;-75
2022/12/10 05:40:47;;;;;;;;;;;;;;;-144.99;88.89;52684.53;5001848;28;19936;-76
2022/12/10 05:43:13;;;;;;;;;;;;;;;-144.99;88.24;52684.53;5001070;28;20131;-75
2022/12/10 05:45:40;;;;;;;;;;;;;;;-144.99;88.16;52666.19;5008129;28;19944;-77
2022/12/10 05:48:07;;;;;;;;;;;;;;;-144.99;87.87;52696.78;5002885;28;19956;-75
2022/12/10 05:50:33;;;;;;;;;;;;;;;-144.99;88.28;52678.44;4998971;28;19944;-76
2022/12/10 05:53:00;;;;;;;;;;;;;;;-144.99;88.25;52696.78;5001918;28;19940;-76
2022/12/10 05:55:28;;;;;;;;;;;;;;;-144.99;88.55;52672.31;5001460;28;19914;-79
2022/12/10 05:57:55;;;;;;;;;;;;;;;-144.99;88.74;52717.16;5020232;28;19986;-78
2022/12/10 06:00:23;;;;;;;;;;;;;;;-144.99;88.59;52692.69;5000712;28;19929;-76
2022/12/10 06:02:49;;;;;;;;;;;;;;;-144.99;88.78;52676.38;5023570;28;19948;-77
2022/12/10 06:05:16;;;;;;;;;;;;;;;-144.99;88.89;52692.69;5014929;28;20496;-76
2022/12/10 06:07:42;;;;;;;;;;;;;;;-144.99;89.18;52676.38;5002183;28;20013;-76
2022/12/10 06:10:09;;;;;;;;;;;;;;;-144.99;89.05;52684.53;5006158;28;19984;-75
2022/12/10 06:12:37;;;;;;;;;;;;;;;-144.99;89.27;52684.53;5000476;28;19980;-73
2022/12/10 06:15:04;;;;;;;;;;;;;;;-144.99;88.41;52700.84;4997900;28;20011;-75
2022/12/10 06:17:31;;;;;;;;;;;;;;;-144.99;88.16;52680.47;4997320;28;19989;-74
2022/12/10 06:19:57;;;;;;;;;;;;;;;-144.99;88.37;52696.78;5001987;28;20002;-74
2022/12/10 06:22:24;;;;;;;;;;;;;;;-144.99;88.43;52711.03;5002103;28;20192;-74
2022/12/10 06:24:50;;;;;;;;;;;;;;;-144.99;88.84;52656.00;5002630;28;19939;-74
2022/12/10 06:27:17;;;;;;;;;;;;;;;-144.99;89.02;52688.63;5000877;28;19957;-72
2022/12/10 06:29:45;;;;;;;;;;;;;;;-144.99;88.83;52696.78;5001696;28;19969;-73
2022/12/10 06:32:11;;;;;;;;;;;;;;;-144.99;88.80;52688.63;5007315;28;19987;-75
2022/12/10 06:34:37;;;;;;;;;;;;;;;-144.99;88.60;52686.59;4996437;28;19936;-73
2022/12/10 06:37:04;;;;;;;;;;;;;;;-144.99;87.99;52713.09;5003226;28;19979;-76
2022/12/10 06:39:30;;;;;;;;;;;;;;;-144.99;87.90;52684.53;5012298;28;19930;-74
2022/12/10 06:41:57;;;;;;;;;;;;;;;-144.99;88.27;52668.22;5023395;28;19956;-77
2022/12/10 06:44:23;;;;;;;;;;;;;;;-144.99;88.60;52676.38;5009742;28;19967;-74
2022/12/10 06:46:51;;;;;;;;;;;;;;;-144.99;88.62;52627.47;4997113;28;19942;-74
2022/12/10 06:49:18;;;;;;;;;;;;;;;-144.99;88.22;52702.88;4995921;28;20441;-74
2022/12/10 06:51:44;;;;;;;;;;;;;;;-144.99;88.43;52656.00;5003774;28;20509;-76
2022/12/10 06:54:10;;;;;;;;;;;;;;;-144.99;88.14;52676.38;5004077;28;20349;-75
2022/12/10 06:56:37;;;;;;;;;;;;;;;-144.99;88.13;52700.84;5002055;28;19947;-74
2022/12/10 06:59:06;;;;;;;;;;;;;;;-144.99;88.83;52676.38;4998589;28;19999;-74
2022/12/10 07:01:32;;;;;;;;;;;;;;;-144.99;87.39;52664.16;5005451;28;20321;-74
2022/12/10 07:04:00;;;;;;;;;;;;;;;-144.99;87.62;52704.94;4997485;28;19930;-72
2022/12/10 07:06:27;;;;;;;;;;;;;;;-144.99;87.76;52668.22;4997697;28;20504;-73
2022/12/10 07:08:54;;;;;;;;;;;;;;;-144.99;87.87;52674.34;4977997;28;20032;-73
2022/12/10 07:11:22;;;;;;;;;;;;;;;-144.99;87.71;52684.53;5003615;28;20035;-72
2022/12/10 07:13:49;;;;;;;;;;;;;;;-144.99;87.79;52696.78;4997649;28;19943;-73
2022/12/10 07:16:17;;;;;;;;;;;;;;;-144.99;88.11;52676.38;4998673;28;19973;-73
2022/12/10 07:18:44;;;;;;;;;;;;;;;-144.99;88.65;52696.78;5004859;28;19957;-74
2022/12/10 07:21:16;;;;;;;;;;;;;;;-144.99;88.71;52704.94;5021146;28;19940;-76
2022/12/10 07:23:43;;;;;;;;;;;;;;;-144.99;88.96;52635.63;5013849;28;20265;-73
2022/12/10 07:26:09;;;;;;;;;;;;;;;-144.99;89.13;52664.16;5005201;28;20015;-75
2022/12/10 07:28:36;;;;;;;;;;;;;;;-144.99;89.49;52668.22;5000370;28;19980;-76
2022/12/10 07:31:02;;;;;;;;;;;;;;;-144.99;89.75;52680.47;5001005;28;20004;-76
2022/12/10 07:33:29;;;;;;;;;;;;;;;-144.99;90.19;52664.16;4996729;28;19929;-75
2022/12/10 07:35:56;;;;;;;;;;;;;;;-144.99;90.26;52668.22;5000493;28;19983;-74
2022/12/10 07:38:24;;;;;;;;;;;;;;;-144.99;90.61;52635.63;4984489;28;20018;-74
2022/12/10 07:40:50;;;;;;;;;;;;;;;-144.99;90.61;52668.22;4995625;28;19958;-74
2022/12/10 07:43:17;;;;;;;;;;;;;;;-144.99;90.98;52678.44;5000935;28;19999;-73
2022/12/10 07:45:43;;;;;;;;;;;;;;;-144.99;90.84;52704.94;5005059;28;19973;-73
2022/12/10 07:48:10;;;;;;;;;;;;;;;-144.99;90.16;52668.22;4993630;28;20009;-74
2022/12/10 07:50:36;;;;;;;;;;;;;;;-144.99;90.44;52680.47;5023999;23;19960;-74
2022/12/10 07:53:03;;;;;;;;;;;;;;;-144.99;90.05;52680.47;5002187;28;19947;-74
2022/12/10 07:55:31;;;;;;;;;;;;;;;-144.99;90.03;52660.09;4984562;28;19985;-76
2022/12/10 07:57:57;;;;;;;;;;;;;;;-144.99;90.29;52660.09;4982722;28;19984;-77
2022/12/10 08:00:24;;;;;;;;;;;;;;;-144.99;91.13;52653.97;4991693;28;20486;-76
2022/12/10 08:02:50;;;;;;;;;;;;;;;-144.99;91.34;52651.94;4991546;28;20352;-79
2022/12/10 08:05:17;;;;;;;;;;;;;;;-144.99;92.35;52651.94;4991398;28;20035;-77
2022/12/10 08:07:43;;;;;;;;;;;;;;;-144.99;91.35;52651.94;4991891;28;20116;-79
2022/12/10 08:10:10;;;;;;;;;;;;;;;-144.99;91.86;52686.59;4990333;28;20006;-76
2022/12/10 08:12:38;;;;;;;;;;;;;;;-144.99;93.17;52631.53;4989673;28;19983;-77
2022/12/10 08:15:05;;;;;;;;;;;;;;;-144.99;93.66;52653.97;4983906;28;20406;-77
2022/12/10 08:17:31;;;;;;;;;;;;;;;-144.99;93.76;52700.84;4991953;28;20369;-76
2022/12/10 08:19:58;;;;;;;;;;;;;;;-144.99;93.93;52704.94;4994484;28;19925;-78
2022/12/10 08:22:24;;;;;;;;;;;;;;;-144.99;93.76;52709.00;4984715;28;20482;-79
2022/12/10 08:24:51;;;;;;;;;;;;;;;-144.99;93.92;52680.47;4991815;28;19983;-78
2022/12/10 08:27:17;;;;;;;;;;;;;;;-144.99;93.92;52698.81;4987498;28;20365;-78
2022/12/10 08:29:45;;;;;;;;;;;;;;;-144.99;93.96;52668.22;4984228;28;20478;-79
2022/12/10 08:32:11;;;;;;;;;;;;;;;-144.99;94.18;52668.22;4991047;28;19926;-78
2022/12/10 08:34:38;;;;;;;;;;;;;;;-144.99;94.47;52676.38;4989918;28;20036;-79
2022/12/10 08:37:04;;;;;;;;;;;;;;;-144.99;94.48;52662.13;4989235;28;19987;-77
2022/12/10 08:39:31;;;;;;;;;;;;;;;-144.99;94.60;52694.72;4991430;28;20067;-77
2022/12/10 08:41:57;;;;;;;;;;;;;;;-144.99;94.81;52700.84;4989252;28;20335;-78
2022/12/10 08:44:24;;;;;;;;;;;;;;;-144.99;95.16;52674.34;4990307;28;20294;-78
2022/12/10 08:46:52;;;;;;;;;;;;;;;-144.99;94.72;52670.28;4995729;28;19976;-78
2022/12/10 08:49:18;;;;;;;;;;;;;;;-144.99;94.75;52676.38;4994850;28;19995;-77
2022/12/10 08:51:45;;;;;;;;;;;;;;;-144.99;95.16;52704.94;4988580;28;20012;-77
2022/12/10 08:54:11;;;;;;;;;;;;;;;-144.99;95.30;52668.22;4994083;28;20011;-77
2022/12/10 08:56:39;;;;;;;;;;;;;;;-144.99;95.69;52651.94;4994428;28;19936;-77
2022/12/10 08:59:05;;;;;;;;;;;;;;;-144.99;96.33;52660.09;4989969;28;20373;-81
2022/12/10 09:01:32;;;;;;;;;;;;;;;-144.99;96.78;52651.94;4993883;28;19952;-77
2022/12/10 09:04:00;;;;;;;;;;;;;;;-144.99;96.71;52656.00;4994066;28;19956;-77
2022/12/10 09:06:27;;;;;;;;;;;;;;;-144.99;96.89;52660.09;4987994;28;19987;-77
2022/12/10 09:08:53;;;;;;;;;;;;;;;-144.99;96.76;52643.78;4988083;28;20407;-77
2022/12/10 09:11:21;;;;;;;;;;;;;;;-144.99;96.68;52676.38;4993556;28;20550;-77
2022/12/10 09:13:47;;;;;;;;;;;;;;;-144.99;96.54;52656.00;5000011;28;19958;-78
2022/12/10 09:16:14;;;;;;;;;;;;;;;-144.99;96.63;52664.16;4987563;28;20489;-77
2022/12/10 09:18:41;;;;;;;;;;;;;;;-144.99;96.71;52676.38;4988720;28;20020;-78
2022/12/10 09:21:09;;;;;;;;;;;;;;;-144.99;96.71;52643.78;4990376;28;20439;-77
2022/12/10 09:23:36;;;;;;;;;;;;;;;-144.99;96.80;52670.28;5000473;28;20250;-77
2022/12/10 09:26:06;;;;;;;;;;;;;;;-144.99;96.49;52704.94;4993117;28;19956;-78
2022/12/10 09:28:32;;;;;;;;;;;;;;;-144.99;96.79;52680.47;4994269;28;19957;-76
2022/12/10 09:31:00;;;;;;;;;;;;;;;-144.99;97.56;52692.69;4992126;28;19930;-77
2022/12/10 09:33:27;;;;;;;;;;;;;;;-144.99;98.05;52670.28;4987074;28;20047;-77
2022/12/10 09:35:53;;;;;;;;;;;;;;;-144.99;98.35;52668.22;4993207;28;19926;-76
2022/12/10 09:38:21;;;;;;;;;;;;;;;-144.99;99.40;52678.44;4988447;28;19987;-77
2022/12/10 09:40:51;;;;;;;;;;;;;;;-144.99;99.05;52674.34;4991983;28;19926;-77
2022/12/10 09:43:23;;;;;;;;;;;;;;;-144.99;98.70;52684.53;4993216;28;20454;-77
2022/12/10 09:45:57;;;;;;;;;;;;;;;-144.99;99.03;52688.63;4986077;28;19966;-76
2022/12/10 09:48:29;;;;;;;;;;;;;;;-144.99;98.82;52692.69;4987397;28;19940;-76
2022/12/10 09:51:00;;;;;;;;;;;;;;;-144.99;99.06;52664.16;4995157;28;19956;-77
2022/12/10 09:53:29;;;;;;;;;;;;;;;-144.99;99.79;52676.38;4995503;28;19929;-77
2022/12/10 09:55:55;;;;;;;;;;;;;;;-144.99;99.57;52656.00;4992117;28;19995;-77
2022/12/10 09:58:23;;;;;;;;;;;;;;;-144.99;99.81;52678.44;4995121;28;19938;-77
2022/12/10 10:00:52;;;;;;;;;;;;;;;-144.99;100.00;52662.13;4986232;28;20010;-76
2022/12/10 10:03:19;;;;;;;;;;;;;;;-144.99;100.00;52688.63;4989247;28;20083;-77
2022/12/10 10:05:47;;;;;;;;;;;;;;;-144.99;100.00;52662.13;4990396;28;19992;-78
2022/12/10 10:08:19;;;;;;;;;;;;;;;-144.99;100.00;52676.38;4991989;28;19969;-77
2022/12/10 10:10:47;;;;;;;;;;;;;;;-144.99;100.00;52643.78;4995409;28;19956;-78
2022/12/10 10:13:19;;;;;;;;;;;;;;;-144.99;100.00;52700.84;4987793;28;19957;-77
2022/12/10 10:15:46;;;;;;;;;;;;;;;-144.99;100.00;52664.16;4993087;28;20113;-77
2022/12/10 10:18:16;;;;;;;;;;;;;;;-144.99;100.00;52682.50;4983415;28;19964;-77
2022/12/10 10:20:43;;;;;;;;;;;;;;;-144.99;100.00;52668.22;4993988;28;19973;-77
2022/12/10 10:23:11;;;;;;;;;;;;;;;-144.99;100.00;52631.53;4992088;28;19942;-76
2022/12/10 10:25:37;;;;;;;;;;;;;;;-144.99;100.00;52696.78;4990420;28;19997;-76
2022/12/10 10:28:05;;;;;;;;;;;;;;;-144.99;100.00;52623.38;4988072;28;19946;-78
2022/12/10 10:30:31;;;;;;;;;;;;;;;-144.99;100.00;52668.22;4987993;28;20344;-77
2022/12/10 10:32:58;;;;;;;;;;;;;;;-144.99;100.00;52692.69;4988493;28;19967;-77
2022/12/10 10:35:26;;;;;;;;;;;;;;;-144.99;100.00;52645.81;4988257;28;19990;-76
2022/12/10 10:37:57;;;;;;;;;;;;;;;-144.99;100.00;52658.03;4989838;28;19942;-76
2022/12/10 10:40:25;;;;;;;;;;;;;;;-144.99;100.00;52680.47;4992349;28;19956;-77
2022/12/10 10:42:54;;;;;;;;;;;;;;;-144.99;100.00;52688.63;4990719;28;19944;-77
2022/12/10 10:45:39;;;;;;;;;;;;;;;-144.99;100.00;52656.00;4996448;28;19968;-77
2022/12/10 10:48:08;;;;;;;;;;;;;;;-144.99;100.00;52656.00;4994996;28;19980;-78
2022/12/10 10:50:38;;;;;;;;;;;;;;;-144.99;100.00;52631.53;4989608;28;20216;-78
2022/12/10 10:53:20;;;;;;;;;;;;;;;-144.99;100.00;52668.22;4994067;28;20375;-78
2022/12/10 10:55:47;;;;;;;;;;;;;;;-144.99;100.00;52643.78;4995197;28;20411;-76
2022/12/10 10:58:17;;;;;;;;;;;;;;;-144.99;100.00;52656.00;4999097;28;19929;-78
2022/12/10 11:00:53;;;;;;;;;;;;;;;-144.99;100.00;52670.28;4998813;28;20030;-77
2022/12/10 11:03:20;;;;;;;;;;;;;;;-144.99;100.00;52672.31;4991097;28;19963;-78
2022/12/10 11:05:48;;;;;;;;;;;;;;;-144.99;100.00;52651.94;4997129;28;19934;-77
2022/12/10 11:08:17;;;;;;;;;;;;;;;-144.99;100.00;52658.03;4994148;28;19926;-77
2022/12/10 11:10:48;;;;;;;;;;;;;;;-144.99;100.00;52696.78;4997179;28;20044;-77
2022/12/10 11:13:19;;;;;;;;;;;;;;;-144.99;100.00;52651.94;4995271;28;19995;-77
2022/12/10 11:15:54;;;;;;;;;;;;;;;-144.99;100.00;52672.31;4993709;28;19937;-77
2022/12/10 11:18:26;;;;;;;;;;;;;;;-144.99;100.00;52674.34;4992942;28;19977;-77
2022/12/10 11:21:03;;;;;;;;;;;;;;;-144.99;100.00;52698.81;4992906;28;20471;-77
2022/12/10 11:23:30;;;;;;;;;;;;;;;-144.99;100.00;52647.84;4989377;28;19937;-77
2022/12/10 11:26:00;;;;;;;;;;;;;;;-144.99;100.00;52676.38;4989845;28;20462;-77
2022/12/10 11:28:36;;;;;;;;;;;;;;;-144.99;100.00;52653.97;4999462;28;19962;-77
2022/12/10 11:31:14;;;;;;;;;;;;;;;-144.99;100.00;52700.84;4999581;28;19965;-76
2022/12/10 11:33:45;;;;;;;;;;;;;;;-144.99;100.00;52670.28;4998857;28;19930;-78
2022/12/10 11:36:18;;;;;;;;;;;;;;;-144.99;100.00;52651.94;4997541;28;19991;-76
2022/12/10 11:38:51;;;;;;;;;;;;;;;-144.99;100.00;52660.09;4996640;28;19964;-77
2022/12/10 11:41:24;;;;;;;;;;;;;;;-144.99;100.00;52668.22;5000208;28;19925;-77
2022/12/10 11:44:02;;;;;;;;;;;;;;;-144.99;100.00;52688.63;4995194;28;19999;-76
2022/12/10 11:46:38;;;;;;;;;;;;;;;-144.99;100.00;52660.09;4998439;28;19936;-75
2022/12/10 11:49:15;;;;;;;;;;;;;;;-144.99;100.00;52688.63;4999878;28;19963;-75
2022/12/10 11:51:45;;;;;;;;;;;;;;;-144.99;100.00;52668.22;4994350;28;19977;-77
2022/12/10 11:54:20;;;;;;;;;;;;;;;-144.99;100.00;52660.09;4995503;28;19945;-77
2022/12/10 11:56:50;;;;;;;;;;;;;;;-144.99;100.00;52688.63;4999218;28;19939;-77
2022/12/10 11:59:21;;;;;;;;;;;;;;;-144.99;100.00;52670.28;5010012;28;19956;-81
2022/12/10 12:02:00;;;;;;;;;;;;;;;-144.99;99.85;52639.69;5009568;28;19952;-76
2022/12/10 12:04:31;;;;;;;;;;;;;;;-144.99;99.85;52696.78;5000328;28;19981;-77
2022/12/10 12:07:13;;;;;;;;;;;;;;;-144.99;99.98;52615.25;5006067;28;19926;-77
2022/12/10 12:09:48;;;;;;;;;;;;;;;-144.99;99.70;52651.94;4995202;28;19986;-75
2022/12/10 12:12:20;;;;;;;;;;;;;;;-144.99;99.71;52615.25;4998058;28;19948;-75
2022/12/10 12:14:49;;;;;;;;;;;;;;;-144.99;99.78;52684.53;4997861;28;19930;-76
2022/12/10 12:17:21;;;;;;;;;;;;;;;-144.99;99.40;52635.63;5001870;28;19930;-76
2022/12/10 12:19:51;;;;;;;;;;;;;;;-144.99;99.17;52660.09;5000039;28;20351;-77
2022/12/10 12:22:24;;;;;;;;;;;;;;;-144.99;99.23;52651.94;4999780;28;19960;-77
2022/12/10 12:24:53;;;;;;;;;;;;;;;-144.99;99.10;52627.47;4999855;28;19969;-76
2022/12/10 12:27:25;;;;;;;;;;;;;;;-144.99;99.14;52680.47;4994226;28;20454;-76
2022/12/10 12:29:58;;;;;;;;;;;;;;;-144.99;99.13;52676.38;5003248;28;19967;-76
2022/12/10 12:32:27;;;;;;;;;;;;;;;-144.99;98.71;52656.00;5001287;28;20429;-77
2022/12/10 12:34:57;;;;;;;;;;;;;;;-144.99;98.26;52696.78;4993380;28;19940;-77
2022/12/10 12:37:28;;;;;;;;;;;;;;;-144.99;98.13;52700.84;4999851;28;19937;-77